createdAt,value
2022-12-27T00:04:24.647Z,6.30
2022-12-27T00:09:30.430Z,8.32
2022-12-27T00:14:34.934Z,30.48
2022-12-27T00:19:39.265Z,15.80
2022-12-27T00:24:48.102Z,18.27
2022-12-27T00:29:52.453Z,21.73
2022-12-27T00:34:57.009Z,13.48
2022-12-27T00:40:02.887Z,10.52
2022-12-27T00:45:08.793Z,11.35
2022-12-27T00:50:13.184Z,11.20
2022-12-27T00:55:20.115Z,10.32
2022-12-27T01:00:24.757Z,12.45
2022-12-27T01:05:31.542Z,13.88
2022-12-27T01:10:37.308Z,8.68
2022-12-27T01:15:43.452Z,8.90
2022-12-27T01:20:49.519Z,8.23
2022-12-27T01:26:02.317Z,9.43
2022-12-27T01:31:07.720Z,8.95
2022-12-27T01:36:14.264Z,7.93
2022-12-27T01:41:39.903Z,7.15
2022-12-27T01:46:44.209Z,6.25
2022-12-27T01:51:48.684Z,7.57
2022-12-27T02:02:01.431Z,7.80
2022-12-27T02:07:08.585Z,9.60
2022-12-27T02:12:15.403Z,8.93
2022-12-27T02:17:24.073Z,6.93
2022-12-27T02:23:12.692Z,6.80
2022-12-27T02:28:36.437Z,7.13
2022-12-27T02:33:48.085Z,9.85
2022-12-27T02:38:57.525Z,9.15
2022-12-27T02:44:19.250Z,8.45
2022-12-27T02:49:44.522Z,7.20
2022-12-27T02:55:06.025Z,6.88
2022-12-27T03:00:31.826Z,6.63
2022-12-27T03:06:09.116Z,9.48
2022-12-27T03:11:30.833Z,8.43
2022-12-27T03:16:42.848Z,8.23
2022-12-27T03:22:08.955Z,9.38
2022-12-27T03:27:18.322Z,6.03
2022-12-27T03:32:42.641Z,8.82
2022-12-27T03:38:05.666Z,8.15
2022-12-27T03:43:15.127Z,7.43
2022-12-27T03:48:25.222Z,7.45
2022-12-27T03:53:35.624Z,7.47
2022-12-27T03:58:39.879Z,7.90
2022-12-27T04:03:46.442Z,7.60
2022-12-27T04:09:12.802Z,6.80
2022-12-27T04:14:35.444Z,6.97
2022-12-27T04:19:57.245Z,6.82
2022-12-27T04:25:20.006Z,5.68
2022-12-27T04:30:41.544Z,6.55
2022-12-27T04:35:48.120Z,6.45
2022-12-27T04:41:14.120Z,6.28
2022-12-27T04:46:41.195Z,5.88
2022-12-27T04:52:02.660Z,5.55
2022-12-27T04:57:08.812Z,7.18
2022-12-27T05:02:13.703Z,10.25
2022-12-27T05:07:50.263Z,11.77
2022-12-27T05:13:15.350Z,5.80
2022-12-27T05:18:22.716Z,6.53
2022-12-27T05:23:46.819Z,5.43
2022-12-27T05:28:57.244Z,4.43
2022-12-27T05:34:04.904Z,5.35
2022-12-27T05:39:12.386Z,4.90
2022-12-27T05:44:21.343Z,3.88
2022-12-27T05:49:26.874Z,3.20
2022-12-27T05:54:31.204Z,3.53
2022-12-27T05:59:37.158Z,3.63
2022-12-27T06:04:41.430Z,6.35
2022-12-27T06:09:45.809Z,4.35
2022-12-27T06:14:51.605Z,5.03
2022-12-27T06:19:57.428Z,3.83
2022-12-27T06:25:03.611Z,4.13
2022-12-27T06:30:13.922Z,3.05
2022-12-27T06:35:21.804Z,3.50
2022-12-27T06:40:29.251Z,3.88
2022-12-27T06:45:37.307Z,2.90
2022-12-27T06:50:41.745Z,1.83
2022-12-27T06:55:45.999Z,1.60
2022-12-27T07:00:51.848Z,1.85
2022-12-27T07:05:56.188Z,1.52
2022-12-27T07:11:02.048Z,1.77
2022-12-27T07:16:09.443Z,1.63
2022-12-27T07:21:16.902Z,1.70
2022-12-27T07:26:24.573Z,1.60
2022-12-27T07:31:32.366Z,2.60
2022-12-27T07:36:40.277Z,1.50
2022-12-27T07:41:44.621Z,1.45
2022-12-27T07:46:52.513Z,1.65
2022-12-27T07:51:57.040Z,1.13
2022-12-27T07:57:01.526Z,1.05
2022-12-27T08:02:10.405Z,1.55
2022-12-27T08:07:17.874Z,1.80
2022-12-27T08:12:22.347Z,1.40
2022-12-27T08:17:29.145Z,2.40
2022-12-27T08:22:33.554Z,3.33
2022-12-27T08:27:37.869Z,2.58
2022-12-27T08:32:43.969Z,5.03
2022-12-27T08:37:48.396Z,3.70
2022-12-27T08:42:52.906Z,2.88
2022-12-27T08:48:02.354Z,2.42
2022-12-27T08:53:07.083Z,3.15
2022-12-27T08:58:16.162Z,4.30
2022-12-27T09:03:23.038Z,3.85
2022-12-27T09:08:27.495Z,4.47
2022-12-27T09:13:32.226Z,1.65
2022-12-27T09:18:38.241Z,2.90
2022-12-27T09:23:43.247Z,2.38
2022-12-27T09:28:48.056Z,2.50
2022-12-27T09:33:54.467Z,2.30
2022-12-27T09:39:00.478Z,3.50
2022-12-27T09:44:09.758Z,2.92
2022-12-27T09:49:19.680Z,4.03
2022-12-27T09:54:31.207Z,3.70
2022-12-27T09:59:40.699Z,2.55
2022-12-27T10:05:18.380Z,3.10
2022-12-27T10:15:29.909Z,3.45
2022-12-27T10:20:57.686Z,4.05
2022-12-27T10:26:06.505Z,3.70
2022-12-27T10:31:16.643Z,3.50
2022-12-27T10:36:26.142Z,3.47
2022-12-27T10:41:50.424Z,4.22
2022-12-27T10:46:57.491Z,3.07
2022-12-27T10:52:11.447Z,2.55
2022-12-27T10:57:27.055Z,3.50
2022-12-27T11:02:31.542Z,4.00
2022-12-27T11:07:39.049Z,3.97
2022-12-27T11:12:56.505Z,3.00
2022-12-27T11:18:03.583Z,3.72
2022-12-27T11:23:15.059Z,3.72
2022-12-27T11:28:24.151Z,3.80
2022-12-27T11:33:40.020Z,4.03
2022-12-27T11:38:48.135Z,2.92
2022-12-27T11:43:55.821Z,2.70
2022-12-27T11:49:00.834Z,2.80
2022-12-27T11:54:30.966Z,3.30
2022-12-27T11:59:47.937Z,2.35
2022-12-27T12:05:41.857Z,3.35
2022-12-27T12:10:55.032Z,3.25
2022-12-27T12:16:37.671Z,3.10
2022-12-27T12:21:58.787Z,4.15
2022-12-27T12:27:29.250Z,5.57
2022-12-27T12:32:55.097Z,6.50
2022-12-27T12:38:06.357Z,3.47
2022-12-27T12:43:25.455Z,3.28
2022-12-27T12:49:01.675Z,3.28
2022-12-27T12:54:18.868Z,3.65
2022-12-27T12:59:41.656Z,2.50
2022-12-27T13:05:04.490Z,3.28
2022-12-27T13:10:45.890Z,4.20
2022-12-27T13:16:13.183Z,10.43
2022-12-27T13:21:29.862Z,3.13
2022-12-27T13:26:43.782Z,5.47
2022-12-27T13:31:58.213Z,3.70
2022-12-27T13:37:15.629Z,4.00
2022-12-27T13:43:00.794Z,3.95
2022-12-27T13:48:24.353Z,3.65
2022-12-27T13:54:08.144Z,3.47
2022-12-27T13:59:37.968Z,3.55
2022-12-27T14:04:59.758Z,5.95
2022-12-27T14:10:14.740Z,3.75
2022-12-27T14:15:23.546Z,5.20
2022-12-27T14:20:44.406Z,4.90
2022-12-27T14:26:30.646Z,5.60
2022-12-27T14:32:06.902Z,4.93
2022-12-27T14:38:01.356Z,8.13
2022-12-27T14:43:39.125Z,8.13
2022-12-27T14:49:14.351Z,7.35
2022-12-27T14:54:49.293Z,5.97
2022-12-27T15:00:03.930Z,5.95
2022-12-27T15:05:25.002Z,5.30
2022-12-27T15:10:48.292Z,5.05
2022-12-27T15:16:02.361Z,4.50
2022-12-27T15:21:21.716Z,5.32
2022-12-27T15:26:38.746Z,6.88
2022-12-27T15:31:54.660Z,5.93
2022-12-27T15:37:02.539Z,7.22
2022-12-27T15:42:36.479Z,5.70
2022-12-27T15:48:09.482Z,5.88
2022-12-27T15:53:48.543Z,9.32
2022-12-27T15:59:29.948Z,8.73
2022-12-27T16:04:49.507Z,8.68
2022-12-27T16:09:55.966Z,7.80
2022-12-27T16:15:40.103Z,8.98
2022-12-27T16:20:56.995Z,10.68
2022-12-27T16:26:07.173Z,10.18
2022-12-27T16:31:13.791Z,7.10
2022-12-27T16:36:22.946Z,8.15
2022-12-27T16:41:44.658Z,9.48
2022-12-27T16:47:08.976Z,9.55
2022-12-27T16:52:35.674Z,10.75
2022-12-27T16:57:44.295Z,12.45
2022-12-27T17:02:51.899Z,11.93
2022-12-27T17:08:17.093Z,8.98
2022-12-27T17:13:34.603Z,6.93
2022-12-27T17:18:47.050Z,6.75
2022-12-27T17:23:52.641Z,5.90
2022-12-27T17:29:07.877Z,6.30
2022-12-27T17:34:21.795Z,6.53
2022-12-27T17:39:50.477Z,6.07
2022-12-27T17:45:14.390Z,6.38
2022-12-27T17:50:23.984Z,17.23
2022-12-27T17:55:47.790Z,10.75
2022-12-27T18:00:58.481Z,16.52
2022-12-27T18:06:03.469Z,14.82
2022-12-27T18:11:10.408Z,14.80
2022-12-27T18:16:20.089Z,17.63
2022-12-27T18:21:26.577Z,12.40
2022-12-27T18:26:37.903Z,14.45
2022-12-27T18:31:49.909Z,11.88
2022-12-27T18:37:02.044Z,13.45
2022-12-27T18:42:20.089Z,10.40
2022-12-27T18:47:28.353Z,10.52
2022-12-27T18:52:35.350Z,16.42
2022-12-27T18:57:39.718Z,9.65
2022-12-27T19:02:46.333Z,10.32
2022-12-27T19:07:55.555Z,6.28
2022-12-27T19:13:04.342Z,8.27
2022-12-27T19:18:23.395Z,7.65
2022-12-27T19:23:34.011Z,8.00
2022-12-27T19:28:38.554Z,6.20
2022-12-27T19:33:46.982Z,7.53
2022-12-27T19:38:51.640Z,9.27
2022-12-27T19:43:56.652Z,7.07
2022-12-27T19:54:26.792Z,12.05
2022-12-27T19:59:31.295Z,14.38
2022-12-27T20:04:37.108Z,8.70
2022-12-27T20:14:45.945Z,8.20
2022-12-27T20:19:53.555Z,7.72
2022-12-27T20:24:58.214Z,12.75
2022-12-27T20:30:02.758Z,5.85
2022-12-27T20:35:09.970Z,6.65
2022-12-27T20:40:16.308Z,6.32
2022-12-27T20:45:21.500Z,10.93
2022-12-27T20:50:27.625Z,7.47
2022-12-27T21:00:41.206Z,5.63
2022-12-27T21:05:48.372Z,5.60
2022-12-27T21:10:52.858Z,5.63
2022-12-27T21:15:57.753Z,5.63
2022-12-27T21:21:04.326Z,4.95
2022-12-27T21:26:30.249Z,5.53
2022-12-27T21:31:35.028Z,6.90
2022-12-27T21:36:41.531Z,5.95
2022-12-27T21:41:46.583Z,6.13
2022-12-27T21:46:51.294Z,7.50
2022-12-27T21:51:57.393Z,7.32
2022-12-27T21:57:01.804Z,7.00
2022-12-27T22:02:06.425Z,5.93
2022-12-27T22:07:13.670Z,5.63
2022-12-27T22:12:18.157Z,6.60
2022-12-27T22:17:24.009Z,7.63
2022-12-27T22:22:29.984Z,7.82
2022-12-27T22:27:34.528Z,6.88
2022-12-27T22:32:39.009Z,9.25
2022-12-27T22:37:45.073Z,7.85
2022-12-27T22:42:50.893Z,6.18
2022-12-27T22:53:01.303Z,6.13
2022-12-27T22:58:05.806Z,5.50
2022-12-27T23:03:11.273Z,10.88
2022-12-27T23:08:17.359Z,14.32
2022-12-27T23:13:24.104Z,12.63
2022-12-27T23:18:29.583Z,10.13
2022-12-27T23:23:35.703Z,8.80
2022-12-27T23:28:41.867Z,8.63
2022-12-27T23:33:46.371Z,6.97
2022-12-27T23:38:55.443Z,6.38
2022-12-27T23:44:02.133Z,5.35
2022-12-27T23:49:06.804Z,4.78
2022-12-27T23:54:12.809Z,6.20
2022-12-27T23:59:18.102Z,9.43
